createdAt,value
2019-02-18T00:01:16.954Z,17.30
2019-02-18T00:03:42.778Z,17.33
2019-02-18T00:06:08.713Z,16.00
2019-02-18T00:08:34.658Z,16.10
2019-02-18T00:11:00.480Z,15.90
2019-02-18T00:13:26.312Z,17.17
2019-02-18T00:15:52.149Z,18.00
2019-02-18T00:18:17.968Z,15.17
2019-02-18T00:20:43.805Z,13.03
2019-02-18T00:23:09.613Z,13.17
2019-02-18T00:25:35.452Z,12.23
2019-02-18T00:28:01.249Z,9.83
2019-02-18T00:30:27.080Z,8.70
2019-02-18T00:32:52.922Z,8.50
2019-02-18T00:35:18.779Z,8.90
2019-02-18T00:37:44.612Z,9.73
2019-02-18T00:40:10.553Z,9.90
2019-02-18T00:42:36.388Z,9.57
2019-02-18T00:45:43.865Z,8.77
2019-02-18T00:48:09.701Z,8.00
2019-02-18T00:50:35.540Z,8.80
2019-02-18T00:53:01.371Z,8.10
2019-02-18T00:55:27.220Z,8.87
2019-02-18T00:57:53.061Z,8.83
2019-02-18T01:00:18.976Z,8.40
2019-02-18T01:02:44.910Z,8.63
2019-02-18T01:05:10.924Z,8.70
2019-02-18T01:07:36.746Z,9.30
2019-02-18T01:10:44.219Z,9.43
2019-02-18T01:13:10.049Z,9.40
2019-02-18T01:15:35.878Z,8.67
2019-02-18T01:18:01.727Z,9.63
2019-02-18T01:20:27.545Z,8.17
2019-02-18T01:22:53.499Z,9.63
2019-02-18T01:25:19.317Z,8.47
2019-02-18T01:27:45.143Z,9.17
2019-02-18T01:30:52.611Z,9.10
2019-02-18T01:33:18.543Z,8.60
2019-02-18T01:35:44.365Z,8.50
2019-02-18T01:38:10.196Z,10.20
2019-02-18T01:40:36.024Z,8.47
2019-02-18T01:43:01.954Z,9.60
2019-02-18T01:45:27.759Z,11.00
2019-02-18T01:47:53.592Z,8.70
2019-02-18T01:50:19.441Z,10.00
2019-02-18T01:52:45.290Z,10.30
2019-02-18T01:55:52.773Z,9.20
2019-02-18T01:58:18.625Z,9.07
2019-02-18T02:00:44.633Z,9.17
2019-02-18T02:03:10.410Z,10.30
2019-02-18T02:05:36.258Z,9.40
2019-02-18T02:08:02.187Z,8.53
2019-02-18T02:10:28.030Z,9.70
2019-02-18T02:13:35.502Z,9.10
2019-02-18T02:16:42.995Z,7.43
2019-02-18T02:19:08.830Z,9.90
2019-02-18T02:21:34.776Z,9.60
2019-02-18T02:24:00.698Z,8.27
2019-02-18T02:26:26.541Z,9.40
2019-02-18T02:28:52.362Z,10.23
2019-02-18T02:31:18.199Z,8.60
2019-02-18T02:33:44.011Z,10.50
2019-02-18T02:36:09.842Z,9.80
2019-02-18T02:38:35.671Z,8.40
2019-02-18T02:41:01.504Z,8.27
2019-02-18T02:43:27.355Z,8.10
2019-02-18T02:45:53.261Z,8.37
2019-02-18T02:48:19.110Z,8.20
2019-02-18T02:50:45.003Z,8.17
2019-02-18T02:53:10.887Z,8.20
2019-02-18T02:55:36.744Z,10.60
2019-02-18T02:58:02.577Z,9.93
2019-02-18T03:00:28.395Z,8.90
2019-02-18T03:02:54.262Z,10.53
2019-02-18T03:05:20.155Z,11.30
2019-02-18T03:07:46.194Z,10.10
2019-02-18T03:10:53.665Z,10.33
2019-02-18T03:13:19.517Z,10.70
2019-02-18T03:15:45.430Z,10.43
2019-02-18T03:18:11.279Z,12.33
2019-02-18T03:20:37.106Z,12.70
2019-02-18T03:23:03.047Z,11.57
2019-02-18T03:26:10.498Z,11.23
2019-02-18T03:29:16.091Z,11.10
2019-02-18T03:31:41.922Z,10.93
2019-02-18T03:34:49.398Z,9.60
2019-02-18T03:37:15.327Z,9.47
2019-02-18T03:39:41.155Z,8.87
2019-02-18T03:42:06.982Z,9.17
2019-02-18T03:44:32.944Z,9.70
2019-02-18T03:46:58.768Z,8.10
2019-02-18T03:49:24.705Z,8.00
2019-02-18T03:51:50.902Z,8.17
2019-02-18T03:54:16.832Z,9.67
2019-02-18T03:56:42.775Z,10.10
2019-02-18T03:59:08.592Z,14.50
2019-02-18T04:01:34.427Z,29.17
2019-02-18T04:04:00.250Z,49.53
2019-02-18T04:06:26.174Z,51.13
2019-02-18T04:08:51.994Z,25.97
2019-02-18T04:11:17.840Z,22.83
2019-02-18T04:13:43.783Z,21.60
2019-02-18T04:16:09.599Z,21.63
2019-02-18T04:18:35.419Z,21.07
2019-02-18T04:21:01.246Z,12.17
2019-02-18T04:23:27.063Z,18.57
2019-02-18T04:25:52.887Z,17.13
2019-02-18T04:28:18.720Z,17.77
2019-02-18T04:30:44.966Z,11.20
2019-02-18T04:33:10.797Z,10.03
2019-02-18T04:35:36.632Z,10.00
2019-02-18T04:38:02.531Z,10.07
2019-02-18T04:40:28.310Z,9.73
2019-02-18T04:42:54.157Z,8.80
2019-02-18T04:45:20.001Z,10.30
2019-02-18T04:47:45.831Z,8.43
2019-02-18T04:50:11.755Z,10.23
2019-02-18T04:52:37.621Z,8.73
2019-02-18T04:55:45.106Z,10.00
2019-02-18T04:58:11.037Z,9.87
2019-02-18T05:00:36.855Z,10.27
2019-02-18T05:03:02.700Z,11.70
2019-02-18T05:05:28.626Z,14.43
2019-02-18T05:07:54.457Z,12.47
2019-02-18T05:10:20.280Z,9.00
2019-02-18T05:12:46.121Z,9.60
2019-02-18T05:15:53.617Z,11.73
2019-02-18T05:18:19.541Z,21.43
2019-02-18T05:20:45.382Z,26.10
2019-02-18T05:23:11.198Z,19.20
2019-02-18T05:25:37.043Z,18.33
2019-02-18T05:28:03.085Z,18.83
2019-02-18T05:30:29.652Z,17.30
2019-02-18T05:32:56.877Z,16.50
2019-02-18T05:35:22.795Z,16.00
2019-02-18T05:37:48.631Z,11.80
2019-02-18T05:40:14.500Z,11.50
2019-02-18T05:42:40.425Z,10.90
2019-02-18T05:45:47.920Z,11.30
2019-02-18T05:48:13.746Z,10.53
2019-02-18T05:50:39.589Z,10.10
2019-02-18T05:53:05.515Z,14.20
2019-02-18T05:55:31.368Z,15.17
2019-02-18T05:57:57.170Z,13.70
2019-02-18T06:00:22.995Z,11.63
2019-02-18T06:02:48.846Z,11.30
2019-02-18T06:05:14.742Z,11.50
2019-02-18T06:07:40.628Z,12.13
2019-02-18T06:10:48.109Z,10.47
2019-02-18T06:13:13.955Z,11.27
2019-02-18T06:15:39.861Z,10.77
2019-02-18T06:18:05.703Z,10.77
2019-02-18T06:20:31.527Z,11.20
2019-02-18T06:22:57.383Z,11.60
2019-02-18T06:25:23.221Z,11.43
2019-02-18T06:27:51.492Z,11.40
2019-02-18T06:30:16.775Z,12.63
2019-02-18T06:32:42.587Z,11.20
2019-02-18T06:35:08.528Z,12.20
2019-02-18T06:37:34.464Z,11.80
2019-02-18T06:40:00.354Z,13.60
2019-02-18T06:42:26.231Z,12.93
2019-02-18T06:47:29.787Z,10.17
2019-02-18T06:49:55.621Z,12.13
2019-02-18T06:52:21.430Z,11.87
2019-02-18T06:54:47.285Z,10.60
2019-02-18T06:57:32.990Z,10.30
2019-02-18T06:59:58.820Z,11.40
2019-02-18T07:02:44.533Z,10.20
2019-02-18T07:05:30.259Z,11.97
2019-02-18T07:08:15.961Z,10.23
2019-02-18T07:13:29.340Z,13.73
2019-02-18T07:15:55.151Z,12.73
2019-02-18T07:18:20.970Z,14.00
2019-02-18T07:20:46.783Z,12.87
2019-02-18T07:23:12.615Z,12.30
2019-02-18T07:25:38.426Z,13.20
2019-02-18T07:28:04.269Z,14.60
2019-02-18T07:30:30.080Z,14.53
2019-02-18T07:32:55.896Z,15.07
2019-02-18T07:35:21.846Z,16.23
2019-02-18T07:37:47.663Z,16.57
2019-02-18T07:40:13.492Z,16.93
2019-02-18T07:45:11.053Z,20.00
2019-02-18T07:47:36.919Z,48.70
2019-02-18T07:50:44.404Z,32.23
2019-02-18T07:53:10.232Z,24.13
2019-02-18T07:55:36.069Z,23.77
2019-02-18T07:58:01.917Z,23.83
2019-02-18T08:00:27.757Z,24.43
2019-02-18T08:02:53.673Z,20.83
2019-02-18T08:05:19.503Z,21.73
2019-02-18T08:07:45.409Z,24.80
2019-02-18T08:10:12.274Z,24.47
2019-02-18T08:12:39.079Z,26.40
2019-02-18T08:15:46.576Z,27.57
2019-02-18T08:18:12.490Z,29.67
2019-02-18T08:20:38.299Z,29.57
2019-02-18T08:23:04.121Z,27.23
2019-02-18T08:25:30.074Z,27.23
2019-02-18T08:27:55.913Z,24.03
2019-02-18T08:30:21.730Z,24.60
2019-02-18T08:32:47.552Z,24.73
2019-02-18T08:35:13.387Z,22.83
2019-02-18T08:37:39.218Z,24.37
2019-02-18T08:40:46.719Z,23.60
2019-02-18T08:43:12.618Z,20.80
2019-02-18T08:45:38.431Z,20.63
2019-02-18T08:48:04.346Z,15.50
2019-02-18T08:50:30.170Z,17.10
2019-02-18T08:52:56.016Z,14.50
2019-02-18T08:55:21.968Z,16.00
2019-02-18T08:57:47.876Z,13.73
2019-02-18T09:01:02.194Z,12.50
2019-02-18T09:03:23.174Z,12.57
2019-02-18T09:05:48.995Z,16.50
2019-02-18T09:08:14.948Z,14.27
2019-02-18T09:10:40.897Z,15.03
2019-02-18T09:13:06.717Z,13.83
2019-02-18T09:15:32.536Z,12.77
2019-02-18T09:17:58.378Z,12.03
2019-02-18T09:20:25.595Z,12.97
2019-02-18T09:23:11.943Z,12.70
2019-02-18T09:28:25.222Z,11.73
2019-02-18T09:33:38.621Z,11.17
2019-02-18T09:36:04.549Z,12.90
2019-02-18T09:38:30.381Z,11.57
2019-02-18T09:40:56.190Z,11.00
2019-02-18T09:43:22.003Z,11.10
2019-02-18T09:45:47.857Z,13.33
2019-02-18T09:48:13.790Z,13.40
2019-02-18T09:50:39.715Z,11.73
2019-02-18T09:53:05.643Z,10.63
2019-02-18T09:55:31.494Z,11.30
2019-02-18T09:57:57.390Z,11.60
2019-02-18T10:00:23.265Z,11.73
2019-02-18T10:02:49.099Z,10.80
2019-02-18T10:05:15.043Z,12.07
2019-02-18T10:07:40.867Z,13.53
2019-02-18T10:10:55.321Z,11.30
2019-02-18T10:13:16.200Z,11.50
2019-02-18T10:15:42.036Z,11.70
2019-02-18T10:18:07.846Z,11.67
2019-02-18T10:20:33.669Z,11.80
2019-02-18T10:22:59.507Z,12.87
2019-02-18T10:25:25.359Z,12.17
2019-02-18T10:27:51.175Z,12.97
2019-02-18T10:30:17.109Z,11.97
2019-02-18T10:32:42.947Z,11.70
2019-02-18T10:35:28.642Z,12.63
2019-02-18T10:37:55.297Z,11.60
2019-02-18T10:40:22.323Z,11.83
2019-02-18T10:42:48.264Z,11.90
2019-02-18T10:45:14.179Z,11.73
2019-02-18T10:47:40.031Z,11.10
2019-02-18T10:50:47.508Z,12.33
2019-02-18T10:53:13.350Z,11.40
2019-02-18T10:55:39.166Z,10.60
2019-02-18T10:58:05.013Z,11.63
2019-02-18T11:00:31.025Z,11.53
2019-02-18T11:02:56.876Z,10.73
2019-02-18T11:05:22.808Z,11.53
2019-02-18T11:07:48.635Z,11.60
2019-02-18T11:10:56.112Z,10.33
2019-02-18T11:13:22.068Z,12.07
2019-02-18T11:15:47.886Z,10.40
2019-02-18T11:18:13.723Z,10.80
2019-02-18T11:20:39.532Z,11.63
2019-02-18T11:23:05.363Z,10.90
2019-02-18T11:25:31.197Z,11.60
2019-02-18T11:28:17.321Z,10.13
2019-02-18T11:30:43.157Z,9.73
2019-02-18T11:33:08.993Z,10.87
2019-02-18T11:35:34.825Z,10.90
2019-02-18T11:38:00.662Z,10.70
2019-02-18T11:40:26.478Z,11.00
2019-02-18T11:42:54.320Z,10.30
2019-02-18T11:45:20.239Z,9.20
2019-02-18T11:47:46.068Z,10.27
2019-02-18T11:50:53.557Z,9.73
2019-02-18T11:53:19.418Z,9.10
2019-02-18T11:55:45.421Z,10.17
2019-02-18T11:58:11.346Z,9.33
2019-02-18T12:00:37.189Z,10.00
2019-02-18T12:03:08.631Z,9.23
2019-02-18T12:05:30.849Z,9.30
2019-02-18T12:07:56.681Z,10.73
2019-02-18T12:10:22.715Z,11.73
2019-02-18T12:12:48.537Z,10.40
2019-02-18T12:15:56.016Z,9.67
2019-02-18T12:18:22.328Z,9.17
2019-02-18T12:20:48.267Z,9.70
2019-02-18T12:23:14.102Z,9.40
2019-02-18T12:25:40.109Z,9.27
2019-02-18T12:28:06.124Z,9.27
2019-02-18T12:30:32.590Z,10.50
2019-02-18T12:32:59.890Z,9.00
2019-02-18T12:35:31.060Z,10.20
2019-02-18T12:37:55.580Z,9.03
2019-02-18T12:40:21.276Z,8.53
2019-02-18T12:42:47.113Z,9.13
2019-02-18T12:45:12.956Z,9.13
2019-02-18T12:47:38.895Z,9.00
2019-02-18T12:50:46.377Z,9.03
2019-02-18T12:53:12.218Z,9.77
2019-02-18T12:55:38.251Z,10.33
2019-02-18T12:58:04.290Z,9.83
2019-02-18T13:00:30.217Z,9.90
2019-02-18T13:02:56.141Z,9.77
2019-02-18T13:05:21.941Z,8.20
2019-02-18T13:07:47.883Z,8.67
2019-02-18T13:10:55.353Z,9.47
2019-02-18T13:13:21.344Z,9.47
2019-02-18T13:15:47.162Z,7.97
2019-02-18T13:18:13.000Z,9.07
2019-02-18T13:20:38.823Z,9.47
2019-02-18T13:23:06.665Z,8.47
2019-02-18T13:25:32.585Z,8.90
2019-02-18T13:27:58.402Z,8.70
2019-02-18T13:30:24.330Z,9.17
2019-02-18T13:32:50.146Z,9.07
2019-02-18T13:35:15.967Z,7.83
2019-02-18T13:37:41.983Z,9.53
2019-02-18T13:43:02.109Z,8.07
2019-02-18T13:45:27.942Z,8.77
2019-02-18T13:47:53.875Z,9.37
2019-02-18T13:50:19.702Z,9.53
2019-02-18T13:52:45.530Z,8.43
2019-02-18T13:55:53.026Z,9.00
2019-02-18T13:58:18.926Z,8.50
2019-02-18T14:00:44.850Z,8.43
2019-02-18T14:03:10.793Z,6.80
2019-02-18T14:05:36.797Z,7.43
2019-02-18T14:08:02.602Z,7.00
2019-02-18T14:10:28.562Z,9.60
2019-02-18T14:12:54.476Z,9.07
2019-02-18T14:18:14.521Z,10.43
2019-02-18T14:20:40.365Z,8.00
2019-02-18T14:23:06.289Z,8.17
2019-02-18T14:25:32.127Z,8.93
2019-02-18T14:27:57.967Z,8.73
2019-02-18T14:30:31.455Z,8.60
2019-02-18T14:32:57.303Z,8.37
2019-02-18T14:35:23.126Z,9.00
2019-02-18T14:37:50.879Z,9.30
2019-02-18T14:43:04.154Z,9.47
2019-02-18T14:45:30.006Z,10.60
2019-02-18T14:47:55.858Z,10.37
2019-02-18T14:50:21.806Z,9.23
2019-02-18T14:52:49.538Z,7.50
2019-02-18T14:55:15.366Z,8.40
2019-02-18T14:57:41.309Z,8.07
2019-02-18T15:00:27.006Z,9.00
2019-02-18T15:03:34.472Z,8.80
2019-02-18T15:06:00.428Z,10.03
2019-02-18T15:08:26.319Z,10.27
2019-02-18T15:10:52.149Z,7.70
2019-02-18T15:13:17.996Z,7.33
2019-02-18T15:15:45.732Z,8.67
2019-02-18T15:18:11.588Z,7.10
2019-02-18T15:20:37.423Z,7.10
2019-02-18T15:23:03.357Z,8.10
2019-02-18T15:25:29.297Z,7.40
2019-02-18T15:27:55.124Z,7.33
2019-02-18T15:30:21.064Z,7.40
2019-02-18T15:32:46.983Z,8.53
2019-02-18T15:35:14.727Z,8.00
2019-02-18T15:37:40.544Z,8.00
2019-02-18T15:40:48.037Z,8.13
2019-02-18T15:43:14.347Z,7.40
2019-02-18T15:45:40.320Z,7.00
2019-02-18T15:48:06.356Z,8.30
2019-02-18T15:50:32.195Z,7.30
2019-02-18T15:52:58.030Z,8.70
2019-02-18T15:55:23.958Z,8.37
2019-02-18T15:57:49.771Z,7.40
2019-02-18T16:00:35.471Z,7.13
2019-02-18T16:03:01.298Z,7.10
2019-02-18T16:05:27.479Z,8.10
2019-02-18T16:07:53.366Z,7.23
2019-02-18T16:10:19.209Z,6.70
2019-02-18T16:12:50.506Z,6.50
2019-02-18T16:15:12.763Z,8.03
2019-02-18T16:17:40.527Z,8.17
2019-02-18T16:20:26.233Z,7.53
2019-02-18T16:22:52.065Z,6.90
2019-02-18T16:25:37.769Z,6.90
2019-02-18T16:28:03.911Z,6.90
2019-02-18T16:30:29.727Z,8.10
2019-02-18T16:32:55.670Z,8.93
2019-02-18T16:35:21.483Z,8.00
2019-02-18T16:37:47.340Z,8.30
2019-02-18T16:40:54.799Z,8.53
2019-02-18T16:43:21.295Z,8.03
2019-02-18T16:45:47.143Z,9.37
2019-02-18T16:48:14.918Z,9.33
2019-02-18T16:50:40.752Z,8.83
2019-02-18T16:53:06.621Z,9.60
2019-02-18T16:55:52.520Z,8.47
2019-02-18T16:58:18.370Z,10.10
2019-02-18T17:00:44.196Z,9.10
2019-02-18T17:03:10.225Z,8.27
2019-02-18T17:05:55.943Z,9.73
2019-02-18T17:08:21.783Z,8.60
2019-02-18T17:10:47.601Z,10.57
2019-02-18T17:13:13.445Z,10.07
2019-02-18T17:15:39.277Z,9.90
2019-02-18T17:18:05.138Z,7.70
2019-02-18T17:20:30.987Z,7.97
2019-02-18T17:22:56.826Z,9.70
2019-02-18T17:25:44.480Z,9.33
2019-02-18T17:28:10.474Z,8.90
2019-02-18T17:30:36.324Z,10.23
2019-02-18T17:33:02.164Z,8.97
2019-02-18T17:35:28.026Z,9.20
2019-02-18T17:37:53.867Z,12.83
2019-02-18T17:40:41.500Z,10.27
2019-02-18T17:43:07.350Z,8.73
2019-02-18T17:45:33.196Z,10.27
2019-02-18T17:47:59.026Z,11.30
2019-02-18T17:50:24.905Z,9.93
2019-02-18T17:52:50.852Z,14.80
2019-02-18T17:55:18.717Z,11.07
2019-02-18T17:57:44.582Z,11.40
2019-02-18T18:00:52.078Z,10.80
2019-02-18T18:03:38.094Z,11.43
2019-02-18T18:06:23.931Z,14.63
2019-02-18T18:08:49.784Z,13.90
2019-02-18T18:11:15.643Z,18.07
2019-02-18T18:13:43.384Z,20.80
2019-02-18T18:16:09.323Z,21.00
2019-02-18T18:18:35.324Z,22.57
2019-02-18T18:21:01.219Z,18.87
2019-02-18T18:23:27.052Z,19.20
2019-02-18T18:25:52.996Z,16.00
2019-02-18T18:28:18.854Z,14.40
2019-02-18T18:30:44.700Z,11.20
2019-02-18T18:33:10.656Z,10.40
2019-02-18T18:35:36.637Z,14.27
2019-02-18T18:38:02.620Z,14.10
2019-02-18T18:40:28.580Z,13.00
2019-02-18T18:42:54.424Z,13.20
2019-02-18T18:45:20.259Z,14.20
2019-02-18T18:47:46.096Z,14.90
2019-02-18T18:50:53.606Z,13.57
2019-02-18T18:53:19.673Z,12.30
2019-02-18T18:56:05.390Z,26.47
2019-02-18T18:58:51.215Z,33.50
2019-02-18T19:01:17.096Z,34.40
2019-02-18T19:03:43.065Z,32.50
2019-02-18T19:06:09.019Z,40.43
2019-02-18T19:08:34.999Z,38.90
2019-02-18T19:11:02.839Z,37.43
2019-02-18T19:13:28.699Z,31.00
2019-02-18T19:15:54.583Z,28.07
2019-02-18T19:18:20.419Z,28.00
2019-02-18T19:20:46.271Z,26.17
2019-02-18T19:23:12.136Z,13.20
2019-02-18T19:25:38.056Z,11.17
2019-02-18T19:28:03.938Z,10.40
2019-02-18T19:31:11.756Z,13.50
2019-02-18T19:33:37.608Z,10.77
2019-02-18T19:36:03.496Z,10.60
2019-02-18T19:38:31.244Z,12.03
2019-02-18T19:40:57.126Z,11.20
2019-02-18T19:43:22.992Z,14.10
2019-02-18T19:45:48.970Z,12.10
2019-02-18T19:48:14.894Z,11.10
2019-02-18T19:50:41.042Z,9.33
2019-02-18T19:53:06.903Z,10.70
2019-02-18T19:55:32.771Z,14.20
2019-02-18T19:57:58.848Z,13.30
2019-02-18T20:00:24.719Z,12.40
2019-02-18T20:02:50.582Z,12.93
2019-02-18T20:05:16.555Z,12.97
2019-02-18T20:07:44.117Z,12.07
2019-02-18T20:10:52.045Z,13.83
2019-02-18T20:13:17.926Z,14.57
2019-02-18T20:15:43.795Z,15.03
2019-02-18T20:18:09.722Z,28.50
2019-02-18T20:20:35.580Z,21.83
2019-02-18T20:23:01.423Z,21.33
2019-02-18T20:25:29.215Z,21.20
2019-02-18T20:27:55.472Z,15.87
2019-02-18T20:30:21.424Z,15.07
2019-02-18T20:32:47.298Z,14.10
2019-02-18T20:35:13.164Z,15.30
2019-02-18T20:37:39.008Z,27.47
2019-02-18T20:40:46.506Z,17.13
2019-02-18T20:43:12.373Z,22.20
2019-02-18T20:45:38.353Z,23.10
2019-02-18T20:48:04.227Z,22.30
2019-02-18T20:50:30.053Z,19.80
2019-02-18T20:52:57.830Z,16.27
2019-02-18T20:55:23.681Z,14.70
2019-02-18T20:57:49.540Z,13.77
2019-02-18T21:00:57.047Z,21.93
2019-02-18T21:03:22.895Z,20.43
2019-02-18T21:05:48.745Z,14.97
2019-02-18T21:08:14.692Z,10.97
2019-02-18T21:10:40.591Z,13.40
2019-02-18T21:13:26.308Z,16.60
2019-02-18T21:15:52.428Z,14.57
2019-02-18T21:18:18.249Z,15.97
2019-02-18T21:20:44.084Z,16.60
2019-02-18T21:23:09.903Z,17.60
2019-02-18T21:25:35.751Z,17.03
2019-02-18T21:28:01.569Z,20.00
2019-02-18T21:30:27.425Z,15.87
2019-02-18T21:32:53.359Z,16.30
2019-02-18T21:35:19.233Z,17.73
2019-02-18T21:37:45.063Z,17.10
2019-02-18T21:40:11.201Z,19.27
2019-02-18T21:42:37.045Z,14.43
2019-02-18T21:45:44.574Z,14.73
2019-02-18T21:48:10.437Z,11.40
2019-02-18T21:50:36.455Z,9.00
2019-02-18T21:53:02.310Z,11.63
2019-02-18T21:55:28.145Z,16.77
2019-02-18T21:57:54.214Z,15.13
2019-02-18T22:01:01.744Z,12.73
2019-02-18T22:03:27.609Z,11.30
2019-02-18T22:05:53.430Z,10.63
2019-02-18T22:08:19.326Z,10.10
2019-02-18T22:10:45.221Z,8.30
2019-02-18T22:13:11.043Z,9.27
2019-02-18T22:15:38.985Z,10.17
2019-02-18T22:18:04.836Z,10.67
2019-02-18T22:20:30.687Z,9.00
2019-02-18T22:22:56.572Z,7.63
2019-02-18T22:25:22.462Z,8.73
2019-02-18T22:27:48.360Z,8.47
2019-02-18T22:30:14.742Z,9.03
2019-02-18T22:32:40.699Z,6.90
2019-02-18T22:35:48.192Z,8.13
2019-02-18T22:38:14.013Z,7.67
2019-02-18T22:40:39.874Z,7.97
2019-02-18T22:43:05.696Z,7.33
2019-02-18T22:45:31.514Z,8.00
2019-02-18T22:47:59.420Z,11.00
2019-02-18T22:50:25.366Z,12.53
2019-02-18T22:52:51.236Z,51.40
2019-02-18T22:55:17.158Z,46.70
2019-02-18T22:57:43.023Z,24.77
2019-02-18T23:00:50.500Z,17.17
2019-02-18T23:03:16.621Z,13.37
2019-02-18T23:05:42.510Z,16.43
2019-02-18T23:08:08.512Z,15.63
2019-02-18T23:10:34.463Z,13.67
2019-02-18T23:13:00.598Z,11.70
2019-02-18T23:15:26.536Z,13.27
2019-02-18T23:17:54.257Z,12.00
2019-02-18T23:20:20.198Z,14.50
2019-02-18T23:22:46.013Z,11.47
2019-02-18T23:25:11.912Z,13.70
2019-02-18T23:27:37.749Z,11.70
2019-02-18T23:30:45.300Z,10.77
2019-02-18T23:33:11.179Z,11.73
2019-02-18T23:35:38.898Z,11.77
2019-02-18T23:38:04.953Z,11.60
2019-02-18T23:40:30.938Z,12.23
2019-02-18T23:42:56.901Z,11.73
2019-02-18T23:45:22.741Z,11.73
2019-02-18T23:47:48.585Z,11.17
2019-02-18T23:50:14.533Z,12.17
2019-02-18T23:52:40.615Z,11.83
2019-02-18T23:55:06.577Z,14.27
2019-02-18T23:57:32.435Z,11.77
2019-02-18T23:59:58.427Z,9.17
